Terminal Aerodrome Forecast
Issued by NWS

Current Version | Previous Version | Text Only | Print | Product List | Glossary On
Versions: 1 2 3 4 5 6 7 8 9 10 11 12 13 14 15 16 17 18 19 20 21 22 23 24 25 26 27 28 29 30 31 32 33 34 35 36 37 38 39 40 41 42 43 44 45 46 47 48 49 50
000
FTAK31 PANC 231917 AAA
TAFASN
TAF AMD
PASN 231917Z 2319/2418 10012KT 5SM -RA BR SCT004 BKN009
      TEMPO 2319/2321 3SM -RA BR BKN004
     FM232100 09012KT 3SM -RA BR SCT004 OVC007
     FM240200 06015KT 1SM RA BR OVC004
     FM241500 36008KT 1SM -RA BR OVC004=

USA.gov is the U.S. government's official web portal to all federal, state and local government web resources and services.